Luke Fidler, Pennsylvania
Current Conditions -  °F | °C
As of 2:53 AM on Monday 24 Nov 2014 (Local Time) from KSEG Reporting Station
Light Rain Light Rain  
Wind Chill: 57°   Ceiling: 1800
Heat Index: 57°   Visibility: 3mi
Dew Point: 53°   Wind: 12mph
Humidity: 87%   Direction: 160°SSE
Pressure: 29.59"   Gusts: 26mph
Location:  40.7842°N, 76.5797°W
Report Text: KSEG 240753Z AUTO 16010G23KT 3SM -RA BR BKN018 OVC023 14/12 A2959 RMK AO2 SLP018 P0012 T01390117 $
Loading
Personal Weather Stations






























Interactive Weather Map New forecast layout! Learn more

10-Day Weather Forecast

Advertisements
Track Severe Weather on mobile